createdAt,value
2019-05-20T00:00:03.542Z,14.27
2019-05-20T00:01:08.313Z,15.30
2019-05-20T00:02:24.533Z,14.13
2019-05-20T00:03:19.007Z,14.20
2019-05-20T00:04:23.435Z,14.77
2019-05-20T00:05:28.253Z,15.40
2019-05-20T00:06:32.445Z,14.83
2019-05-20T00:07:37.215Z,14.60
2019-05-20T00:08:41.466Z,15.40
2019-05-20T00:09:46.259Z,15.20
2019-05-20T00:10:50.466Z,15.50
2019-05-20T00:11:55.240Z,15.10
2019-05-20T00:12:59.503Z,15.30
2019-05-20T00:14:04.266Z,15.73
2019-05-20T00:15:08.518Z,15.57
2019-05-20T00:16:13.239Z,16.07
2019-05-20T00:17:17.471Z,16.13
2019-05-20T00:18:22.288Z,16.03
2019-05-20T00:19:26.669Z,14.97
2019-05-20T00:20:31.422Z,16.03
2019-05-20T00:21:35.713Z,15.53
2019-05-20T00:22:40.491Z,14.73
2019-05-20T00:23:44.751Z,14.60
2019-05-20T00:24:49.565Z,16.63
2019-05-20T00:25:53.791Z,15.47
2019-05-20T00:26:58.579Z,16.60
2019-05-20T00:28:02.857Z,16.53
2019-05-20T00:29:07.713Z,16.73
2019-05-20T00:30:12.166Z,17.20
2019-05-20T00:31:16.947Z,18.30
2019-05-20T00:32:21.154Z,17.47
2019-05-20T00:33:25.966Z,17.20
2019-05-20T00:34:35.300Z,16.50
2019-05-20T00:35:36.638Z,17.87
2019-05-20T00:36:40.887Z,17.87
2019-05-20T00:37:45.692Z,19.93
2019-05-20T00:39:08.885Z,17.07
2019-05-20T00:40:13.108Z,16.27
2019-05-20T00:41:17.885Z,17.77
2019-05-20T00:42:22.108Z,17.23
2019-05-20T00:43:26.947Z,17.63
2019-05-20T00:44:31.155Z,17.30
2019-05-20T00:45:35.930Z,17.40
2019-05-20T00:46:40.187Z,16.10
2019-05-20T00:47:44.969Z,17.83
2019-05-20T00:48:49.224Z,17.27
2019-05-20T00:49:54.004Z,17.50
2019-05-20T00:50:58.229Z,16.50
2019-05-20T00:52:03.052Z,16.43
2019-05-20T00:53:07.239Z,17.03
2019-05-20T00:54:12.055Z,17.07
2019-05-20T00:55:24.391Z,17.67
2019-05-20T00:56:29.203Z,17.67
2019-05-20T00:57:33.418Z,17.90
2019-05-20T00:58:38.229Z,17.70
2019-05-20T00:59:42.482Z,16.70
2019-05-20T01:00:47.231Z,17.13
2019-05-20T01:01:51.477Z,17.93
2019-05-20T01:02:57.389Z,18.53
2019-05-20T01:04:01.995Z,17.63
2019-05-20T01:05:06.849Z,17.47
2019-05-20T01:06:11.082Z,16.53
2019-05-20T01:07:15.939Z,17.70
2019-05-20T01:08:20.174Z,17.67
2019-05-20T01:09:24.979Z,18.13
2019-05-20T01:10:29.191Z,17.60
2019-05-20T01:11:33.894Z,17.27
2019-05-20T01:12:38.139Z,17.87
2019-05-20T01:13:42.914Z,18.53
2019-05-20T01:14:47.172Z,17.73
2019-05-20T01:15:51.988Z,18.30
2019-05-20T01:16:56.282Z,17.33
2019-05-20T01:18:01.081Z,17.43
2019-05-20T01:19:05.330Z,17.80
2019-05-20T01:20:10.106Z,19.00
2019-05-20T01:21:14.342Z,18.77
2019-05-20T01:22:19.123Z,17.80
2019-05-20T01:23:23.367Z,18.30
2019-05-20T01:24:28.098Z,17.47
2019-05-20T01:25:32.320Z,18.10
2019-05-20T01:26:37.099Z,18.03
2019-05-20T01:27:41.325Z,18.50
2019-05-20T01:28:46.108Z,18.43
2019-05-20T01:29:50.370Z,18.63
2019-05-20T01:30:55.150Z,18.60
2019-05-20T01:31:59.375Z,18.07
2019-05-20T01:33:13.431Z,18.83
2019-05-20T01:34:10.050Z,20.10
2019-05-20T01:35:14.885Z,19.77
2019-05-20T01:36:19.102Z,18.43
2019-05-20T01:37:23.875Z,18.53
2019-05-20T01:38:28.099Z,19.10
2019-05-20T01:39:32.998Z,18.37
2019-05-20T01:40:37.281Z,18.60
2019-05-20T01:41:41.983Z,19.27
2019-05-20T01:42:46.262Z,18.20
2019-05-20T01:43:51.027Z,18.47
2019-05-20T01:44:55.285Z,18.00
2019-05-20T01:46:00.072Z,20.17
2019-05-20T01:47:04.291Z,18.80
2019-05-20T01:48:09.103Z,19.10
2019-05-20T01:49:13.320Z,19.03
2019-05-20T01:50:18.139Z,19.70
2019-05-20T01:51:22.363Z,19.10
2019-05-20T01:52:27.157Z,19.83
2019-05-20T01:53:31.371Z,19.83
2019-05-20T01:54:36.139Z,20.87
2019-05-20T01:55:40.379Z,20.43
2019-05-20T01:56:45.142Z,19.70
2019-05-20T01:57:49.364Z,20.67
2019-05-20T01:58:54.139Z,20.57
2019-05-20T01:59:58.431Z,20.47
2019-05-20T02:01:03.243Z,19.83
2019-05-20T02:02:07.458Z,19.53
2019-05-20T02:03:12.223Z,19.80
2019-05-20T02:04:16.452Z,20.90
2019-05-20T02:05:21.254Z,20.40
2019-05-20T02:06:25.492Z,19.83
2019-05-20T02:07:30.264Z,20.63
2019-05-20T02:08:34.466Z,20.03
2019-05-20T02:09:39.357Z,19.87
2019-05-20T02:10:43.619Z,19.80
2019-05-20T02:11:48.391Z,20.43
2019-05-20T02:12:52.621Z,20.03
2019-05-20T02:14:01.632Z,19.67
2019-05-20T02:15:12.007Z,20.27
2019-05-20T02:16:17.219Z,19.87
2019-05-20T02:17:21.444Z,19.27
2019-05-20T02:18:26.220Z,20.70
2019-05-20T02:19:30.460Z,20.87
2019-05-20T02:20:35.263Z,20.83
2019-05-20T02:21:39.509Z,20.67
2019-05-20T02:22:44.274Z,21.20
2019-05-20T02:23:48.538Z,20.83
2019-05-20T02:24:53.303Z,19.93
2019-05-20T02:25:57.547Z,20.30
2019-05-20T02:27:02.327Z,20.07
2019-05-20T02:28:06.557Z,20.47
2019-05-20T02:29:11.373Z,20.43
2019-05-20T02:30:15.608Z,20.50
2019-05-20T02:31:20.417Z,21.43
2019-05-20T02:32:24.638Z,20.27
2019-05-20T02:33:29.407Z,21.60
2019-05-20T02:34:33.679Z,20.47
2019-05-20T02:35:38.501Z,20.00
2019-05-20T02:36:42.715Z,20.30
2019-05-20T02:37:47.494Z,20.43
2019-05-20T02:38:51.711Z,20.33
2019-05-20T02:39:56.486Z,20.10
2019-05-20T02:41:00.752Z,20.63
2019-05-20T02:42:05.538Z,20.40
2019-05-20T02:43:09.747Z,21.43
2019-05-20T02:44:14.512Z,20.03
2019-05-20T02:45:18.728Z,20.80
2019-05-20T02:46:23.638Z,21.07
2019-05-20T02:47:27.860Z,20.03
2019-05-20T02:48:32.682Z,19.80
2019-05-20T02:49:36.914Z,20.47
2019-05-20T02:50:41.693Z,20.77
2019-05-20T02:51:46.077Z,21.87
2019-05-20T02:52:50.865Z,21.17
2019-05-20T02:53:55.117Z,20.50
2019-05-20T02:54:59.844Z,21.27
2019-05-20T02:56:04.109Z,21.57
2019-05-20T02:57:08.877Z,21.90
2019-05-20T02:58:13.109Z,22.10
2019-05-20T02:59:17.896Z,21.90
2019-05-20T03:00:22.151Z,23.60
2019-05-20T03:01:26.975Z,21.87
2019-05-20T03:02:31.265Z,22.53
2019-05-20T03:03:36.048Z,24.20
2019-05-20T03:04:40.247Z,21.57
2019-05-20T03:05:45.378Z,22.30
2019-05-20T03:06:49.615Z,21.50
2019-05-20T03:07:54.395Z,22.37
2019-05-20T03:08:58.604Z,22.10
2019-05-20T03:10:03.418Z,23.30
2019-05-20T03:11:07.756Z,22.60
2019-05-20T03:12:12.678Z,21.73
2019-05-20T03:13:16.896Z,22.27
2019-05-20T03:14:21.692Z,22.67
2019-05-20T03:15:25.912Z,23.80
2019-05-20T03:16:30.733Z,22.77
2019-05-20T03:17:34.937Z,24.10
2019-05-20T03:18:39.713Z,22.93
2019-05-20T03:19:43.952Z,24.67
2019-05-20T03:20:48.775Z,24.33
2019-05-20T03:21:53.051Z,22.93
2019-05-20T03:22:57.826Z,23.90
2019-05-20T03:24:02.067Z,25.20
2019-05-20T03:25:07.253Z,24.03
2019-05-20T03:26:11.475Z,22.97
2019-05-20T03:27:16.295Z,23.90
2019-05-20T03:28:20.529Z,22.77
2019-05-20T03:29:25.286Z,22.77
2019-05-20T03:30:29.431Z,23.53
2019-05-20T03:31:34.270Z,23.87
2019-05-20T03:32:38.480Z,24.27
2019-05-20T03:33:43.236Z,23.37
2019-05-20T03:34:57.972Z,24.03
2019-05-20T03:35:53.873Z,23.97
2019-05-20T03:36:58.126Z,24.47
2019-05-20T03:38:02.902Z,24.80
2019-05-20T03:39:07.234Z,24.27
2019-05-20T03:40:12.017Z,24.63
2019-05-20T03:41:16.248Z,23.63
2019-05-20T03:42:21.057Z,24.70
2019-05-20T03:43:25.277Z,23.70
2019-05-20T03:44:30.125Z,24.70
2019-05-20T03:45:34.318Z,25.77
2019-05-20T03:46:39.157Z,25.40
2019-05-20T03:47:43.456Z,24.13
2019-05-20T03:48:48.234Z,25.87
2019-05-20T03:49:52.388Z,25.67
2019-05-20T03:50:57.166Z,26.10
2019-05-20T03:52:01.415Z,25.10
2019-05-20T03:53:06.185Z,26.40
2019-05-20T03:54:10.402Z,24.73
2019-05-20T03:55:15.178Z,25.83
2019-05-20T03:56:19.336Z,26.23
2019-05-20T03:57:24.143Z,26.43
2019-05-20T03:58:28.377Z,25.60
2019-05-20T03:59:33.159Z,26.50
2019-05-20T04:00:46.779Z,26.97
2019-05-20T04:01:51.537Z,26.70
2019-05-20T04:02:55.778Z,27.27
2019-05-20T04:04:00.610Z,26.80
2019-05-20T04:05:04.850Z,25.63
2019-05-20T04:06:09.652Z,27.03
2019-05-20T04:07:14.017Z,26.67
2019-05-20T04:08:18.787Z,27.83
2019-05-20T04:09:23.071Z,27.73
2019-05-20T04:10:27.791Z,27.63
2019-05-20T04:11:32.011Z,26.77
2019-05-20T04:12:36.828Z,25.40
2019-05-20T04:13:41.048Z,28.43
2019-05-20T04:14:45.976Z,27.33
2019-05-20T04:15:50.294Z,26.37
2019-05-20T04:16:55.092Z,28.00
2019-05-20T04:17:59.432Z,26.83
2019-05-20T04:19:04.199Z,27.63
2019-05-20T04:20:08.457Z,28.10
2019-05-20T04:21:13.235Z,28.60
2019-05-20T04:22:17.600Z,28.63
2019-05-20T04:23:22.597Z,29.80
2019-05-20T04:24:26.991Z,29.03
2019-05-20T04:25:31.958Z,30.53
2019-05-20T04:26:36.299Z,28.87
2019-05-20T04:27:41.098Z,30.33
2019-05-20T04:28:45.331Z,30.10
2019-05-20T04:29:50.137Z,29.93
2019-05-20T04:30:54.352Z,29.23
2019-05-20T04:31:59.247Z,31.43
2019-05-20T04:33:03.522Z,29.63
2019-05-20T04:34:08.319Z,30.30
2019-05-20T04:35:22.052Z,28.70
2019-05-20T04:36:19.352Z,30.23
2019-05-20T04:37:23.576Z,29.43
2019-05-20T04:38:28.382Z,29.90
2019-05-20T04:39:32.596Z,29.80
2019-05-20T04:40:37.473Z,30.10
2019-05-20T04:41:41.699Z,28.20
2019-05-20T04:42:46.456Z,29.83
2019-05-20T04:43:50.720Z,30.40
2019-05-20T04:44:55.516Z,30.63
2019-05-20T04:45:59.736Z,29.93
2019-05-20T04:47:04.518Z,30.20
2019-05-20T04:48:08.863Z,28.97
2019-05-20T04:49:13.976Z,29.67
2019-05-20T04:50:18.195Z,29.83
2019-05-20T04:51:22.979Z,29.80
2019-05-20T04:52:27.191Z,30.17
2019-05-20T04:53:32.003Z,29.80
2019-05-20T04:54:36.233Z,30.10
2019-05-20T04:55:40.995Z,31.43
2019-05-20T04:56:45.206Z,30.73
2019-05-20T04:57:49.991Z,28.60
2019-05-20T04:58:54.243Z,31.27
2019-05-20T04:59:59.018Z,31.30
2019-05-20T05:01:03.268Z,29.63
2019-05-20T05:02:08.023Z,31.57
2019-05-20T05:03:12.292Z,31.70
2019-05-20T05:04:17.098Z,31.53
2019-05-20T05:05:35.323Z,34.73
2019-05-20T05:06:27.741Z,30.93
2019-05-20T05:07:31.969Z,31.20
2019-05-20T05:08:36.767Z,33.30
2019-05-20T05:09:40.992Z,35.90
2019-05-20T05:10:46.079Z,41.33
2019-05-20T05:11:50.305Z,30.53
2019-05-20T05:12:55.152Z,35.47
2019-05-20T05:13:59.429Z,31.73
2019-05-20T05:15:07.792Z,41.87
2019-05-20T05:16:10.072Z,34.10
2019-05-20T05:17:14.871Z,34.83
2019-05-20T05:18:19.122Z,34.43
2019-05-20T05:19:23.927Z,30.53
2019-05-20T05:20:28.183Z,33.50
2019-05-20T05:21:32.959Z,32.37
2019-05-20T05:22:37.286Z,36.90
2019-05-20T05:23:42.118Z,71.63
2019-05-20T05:24:46.343Z,40.73
2019-05-20T05:25:51.268Z,41.53
2019-05-20T05:26:55.472Z,35.07
2019-05-20T05:28:00.247Z,34.83
2019-05-20T05:29:04.615Z,49.97
2019-05-20T05:30:09.395Z,52.63
2019-05-20T05:31:13.621Z,45.73
2019-05-20T05:32:19.664Z,72.60
2019-05-20T05:33:23.879Z,38.80
2019-05-20T05:34:28.691Z,47.57
2019-05-20T05:35:32.898Z,36.97
2019-05-20T05:36:37.690Z,34.13
2019-05-20T05:37:42.003Z,41.47
2019-05-20T05:38:46.769Z,36.20
2019-05-20T05:39:51.587Z,35.60
2019-05-20T05:40:56.340Z,33.93
2019-05-20T05:42:00.642Z,69.27
2019-05-20T05:43:05.655Z,35.00
2019-05-20T05:44:09.903Z,35.63
2019-05-20T05:45:14.675Z,37.37
2019-05-20T05:46:18.892Z,47.10
2019-05-20T05:47:23.659Z,36.70
2019-05-20T05:48:27.911Z,80.13
2019-05-20T05:49:32.723Z,46.77
2019-05-20T05:50:36.955Z,47.73
2019-05-20T05:51:41.741Z,36.90
2019-05-20T05:52:45.968Z,33.80
2019-05-20T05:53:50.768Z,35.80
2019-05-20T05:54:55.011Z,36.60
2019-05-20T05:55:59.778Z,35.30
2019-05-20T05:57:03.981Z,35.00
2019-05-20T05:58:09.130Z,100.73
2019-05-20T05:59:13.449Z,45.60
2019-05-20T06:00:18.223Z,56.37
2019-05-20T06:01:22.451Z,39.00
2019-05-20T06:02:27.219Z,44.33
2019-05-20T06:03:31.438Z,35.40
2019-05-20T06:04:36.250Z,74.83
2019-05-20T06:05:40.474Z,35.83
2019-05-20T06:06:45.258Z,35.37
2019-05-20T06:07:49.470Z,33.17
2019-05-20T06:08:54.247Z,35.63
2019-05-20T06:09:58.500Z,35.33
2019-05-20T06:11:03.281Z,36.10
2019-05-20T06:12:07.573Z,34.23
2019-05-20T06:13:12.303Z,33.40
2019-05-20T06:14:16.632Z,35.20
2019-05-20T06:15:21.402Z,35.10
2019-05-20T06:16:36.064Z,34.97
2019-05-20T06:17:32.054Z,35.77
2019-05-20T06:18:36.280Z,37.37
2019-05-20T06:19:41.094Z,37.63
2019-05-20T06:20:45.344Z,36.70
2019-05-20T06:21:50.090Z,37.60
2019-05-20T06:22:54.327Z,39.30
2019-05-20T06:23:59.316Z,38.77
2019-05-20T06:25:03.940Z,36.60
2019-05-20T06:26:08.839Z,37.17
2019-05-20T06:27:13.047Z,36.90
2019-05-20T06:28:17.838Z,35.53
2019-05-20T06:29:22.058Z,36.43
2019-05-20T06:30:41.502Z,36.43
2019-05-20T06:31:45.724Z,36.93
2019-05-20T06:32:50.513Z,36.87
2019-05-20T06:33:54.721Z,36.70
2019-05-20T06:34:59.535Z,35.30
2019-05-20T06:36:03.820Z,35.00
2019-05-20T06:37:10.008Z,35.50
2019-05-20T06:38:31.907Z,35.20
2019-05-20T06:39:36.167Z,35.97
2019-05-20T06:40:40.993Z,36.10
2019-05-20T06:41:45.218Z,36.43
2019-05-20T06:42:50.068Z,37.50
2019-05-20T06:43:54.426Z,37.50
2019-05-20T06:44:59.223Z,36.23
2019-05-20T06:46:03.483Z,36.20
2019-05-20T06:47:08.256Z,35.17
2019-05-20T06:48:12.521Z,37.40
2019-05-20T06:49:17.302Z,35.90
2019-05-20T06:50:21.547Z,37.03
2019-05-20T06:51:26.331Z,34.73
2019-05-20T06:52:35.894Z,34.80
2019-05-20T06:53:37.102Z,35.30
2019-05-20T06:54:41.341Z,36.30
2019-05-20T06:55:46.383Z,33.40
2019-05-20T06:56:50.615Z,35.47
2019-05-20T06:57:55.426Z,34.30
2019-05-20T06:58:59.664Z,36.27
2019-05-20T07:00:06.411Z,35.37
2019-05-20T07:01:10.707Z,35.43
2019-05-20T07:02:15.505Z,35.80
2019-05-20T07:03:19.729Z,35.87
2019-05-20T07:04:24.511Z,36.63
2019-05-20T07:05:28.780Z,36.53
2019-05-20T07:06:46.012Z,33.70
2019-05-20T07:07:39.438Z,36.30
2019-05-20T07:08:44.224Z,36.57
2019-05-20T07:09:48.450Z,35.90
2019-05-20T07:10:53.256Z,35.80
2019-05-20T07:11:57.509Z,36.07
2019-05-20T07:13:02.330Z,36.87
2019-05-20T07:14:06.523Z,36.77
2019-05-20T07:15:11.321Z,35.20
2019-05-20T07:16:15.613Z,36.10
2019-05-20T07:17:20.379Z,37.97
2019-05-20T07:18:27.325Z,37.60
2019-05-20T07:19:31.042Z,34.70
2019-05-20T07:20:35.259Z,36.17
2019-05-20T07:21:40.222Z,34.97
2019-05-20T07:22:55.448Z,35.53
2019-05-20T07:23:52.506Z,35.13
2019-05-20T07:24:56.834Z,34.17
2019-05-20T07:26:01.663Z,36.37
2019-05-20T07:27:05.877Z,34.10
2019-05-20T07:28:10.653Z,34.57
2019-05-20T07:29:14.881Z,34.57
2019-05-20T07:30:19.673Z,36.10
2019-05-20T07:31:23.914Z,35.30
2019-05-20T07:32:28.692Z,35.93
2019-05-20T07:33:32.914Z,36.10
2019-05-20T07:34:37.692Z,35.50
2019-05-20T07:35:41.913Z,35.17
2019-05-20T07:37:02.047Z,34.10
2019-05-20T07:37:52.687Z,35.70
2019-05-20T07:38:57.392Z,35.63
2019-05-20T07:40:01.603Z,33.37
2019-05-20T07:41:06.580Z,34.67
2019-05-20T07:42:10.837Z,33.80
2019-05-20T07:43:15.619Z,34.83
2019-05-20T07:44:19.851Z,33.93
2019-05-20T07:45:24.653Z,33.83
2019-05-20T07:46:28.916Z,35.00
2019-05-20T07:47:33.689Z,34.03
2019-05-20T07:48:38.002Z,34.60
2019-05-20T07:49:42.735Z,34.13
2019-05-20T07:50:46.984Z,33.87
2019-05-20T07:51:51.796Z,33.00
2019-05-20T07:52:56.162Z,34.60
2019-05-20T07:54:00.957Z,33.33
2019-05-20T07:55:05.196Z,35.70
2019-05-20T07:56:13.044Z,35.30
2019-05-20T07:57:17.305Z,35.13
2019-05-20T07:58:22.098Z,35.00
2019-05-20T07:59:26.328Z,35.13
2019-05-20T08:00:31.221Z,35.10
2019-05-20T08:01:35.464Z,33.27
2019-05-20T08:02:40.267Z,34.53
2019-05-20T08:03:44.494Z,35.53
2019-05-20T08:04:49.391Z,33.73
2019-05-20T08:05:53.606Z,35.80
2019-05-20T08:06:58.445Z,35.20
2019-05-20T08:08:02.674Z,35.63
2019-05-20T08:09:08.398Z,32.40
2019-05-20T08:10:12.775Z,35.40
2019-05-20T08:11:17.557Z,33.83
2019-05-20T08:12:21.820Z,33.73
2019-05-20T08:13:26.578Z,34.50
2019-05-20T08:14:30.823Z,34.27
2019-05-20T08:15:35.599Z,34.93
2019-05-20T08:16:39.843Z,35.00
2019-05-20T08:17:44.663Z,34.60
2019-05-20T08:18:48.909Z,34.27
2019-05-20T08:19:53.682Z,34.20
2019-05-20T08:20:57.898Z,35.20
2019-05-20T08:22:02.679Z,33.53
2019-05-20T08:23:06.954Z,33.97
2019-05-20T08:24:11.714Z,32.87
2019-05-20T08:25:15.951Z,33.80
2019-05-20T08:26:20.740Z,35.03
2019-05-20T08:27:25.002Z,35.67
2019-05-20T08:28:29.796Z,34.17
2019-05-20T08:29:34.080Z,35.87
2019-05-20T08:30:39.359Z,34.17
2019-05-20T08:31:43.591Z,35.10
2019-05-20T08:32:48.402Z,32.53
2019-05-20T08:33:52.670Z,34.97
2019-05-20T08:34:57.499Z,34.20
2019-05-20T08:36:01.754Z,34.20
2019-05-20T08:37:06.508Z,34.07
2019-05-20T08:38:10.754Z,33.77
2019-05-20T08:39:15.547Z,34.83
2019-05-20T08:40:20.059Z,33.80
2019-05-20T08:41:24.888Z,34.13
2019-05-20T08:42:29.124Z,35.47
2019-05-20T08:43:33.923Z,34.27
2019-05-20T08:44:38.135Z,35.37
2019-05-20T08:45:42.919Z,34.13
2019-05-20T08:46:47.184Z,34.47
2019-05-20T08:47:51.980Z,35.20
2019-05-20T08:48:56.231Z,35.93
2019-05-20T08:50:01.534Z,34.13
2019-05-20T08:51:06.350Z,34.40
2019-05-20T08:52:11.154Z,33.90
2019-05-20T08:53:15.473Z,33.60
2019-05-20T08:54:20.219Z,34.53
2019-05-20T08:55:24.444Z,33.67
2019-05-20T08:56:29.240Z,34.07
2019-05-20T08:57:33.467Z,34.57
2019-05-20T08:58:38.268Z,33.33
2019-05-20T08:59:42.499Z,34.83
2019-05-20T09:00:47.289Z,33.97
2019-05-20T09:01:51.494Z,34.27
2019-05-20T09:02:56.228Z,32.43
2019-05-20T09:04:00.450Z,31.87
2019-05-20T09:05:06.973Z,32.43
2019-05-20T09:06:11.203Z,34.27
2019-05-20T09:07:15.985Z,34.47
2019-05-20T09:08:20.263Z,32.87
2019-05-20T09:09:25.302Z,34.00
2019-05-20T09:10:29.601Z,33.20
2019-05-20T09:11:34.492Z,33.23
2019-05-20T09:12:38.709Z,32.63
2019-05-20T09:13:43.599Z,32.90
2019-05-20T09:14:47.898Z,32.03
2019-05-20T09:15:52.737Z,32.93
2019-05-20T09:16:56.909Z,31.70
2019-05-20T09:18:01.866Z,31.90
2019-05-20T09:19:06.223Z,32.13
2019-05-20T09:20:11.022Z,32.23
2019-05-20T09:21:15.359Z,32.97
2019-05-20T09:22:20.319Z,32.17
2019-05-20T09:23:24.694Z,32.63
2019-05-20T09:24:29.432Z,31.23
2019-05-20T09:25:33.748Z,32.60
2019-05-20T09:26:38.567Z,31.07
2019-05-20T09:27:42.804Z,32.73
2019-05-20T09:28:47.647Z,31.10
2019-05-20T09:29:51.884Z,31.93
2019-05-20T09:30:56.697Z,33.50
2019-05-20T09:32:00.945Z,32.13
2019-05-20T09:33:05.730Z,34.30
2019-05-20T09:34:09.988Z,30.90
2019-05-20T09:35:14.800Z,30.80
2019-05-20T09:36:19.065Z,32.43
2019-05-20T09:37:23.837Z,34.27
2019-05-20T09:38:28.097Z,32.50
2019-05-20T09:39:32.888Z,33.03
2019-05-20T09:40:42.336Z,32.63
2019-05-20T09:41:47.096Z,31.90
2019-05-20T09:42:51.358Z,32.17
2019-05-20T09:43:56.146Z,32.43
2019-05-20T09:45:03.053Z,32.87
2019-05-20T09:46:08.398Z,34.23
2019-05-20T09:47:12.822Z,32.27
2019-05-20T09:48:17.591Z,32.70
2019-05-20T09:49:21.900Z,32.50
2019-05-20T09:50:26.697Z,31.97
2019-05-20T09:51:30.917Z,31.80
2019-05-20T09:52:35.694Z,33.60
2019-05-20T09:53:39.945Z,31.80
2019-05-20T09:54:45.638Z,32.97
2019-05-20T09:55:49.973Z,33.60
2019-05-20T09:56:54.754Z,32.67
2019-05-20T09:57:58.972Z,31.80
2019-05-20T09:59:03.833Z,31.43
2019-05-20T10:00:08.225Z,32.43
2019-05-20T10:01:13.028Z,33.10
2019-05-20T10:02:17.233Z,32.50
2019-05-20T10:03:22.007Z,32.13
2019-05-20T10:04:26.280Z,32.90
2019-05-20T10:05:31.076Z,33.67
2019-05-20T10:06:35.411Z,32.30
2019-05-20T10:07:40.119Z,32.67
2019-05-20T10:08:45.260Z,32.80
2019-05-20T10:09:50.278Z,33.80
2019-05-20T10:10:54.469Z,33.03
2019-05-20T10:12:00.930Z,32.97
2019-05-20T10:13:05.494Z,31.67
2019-05-20T10:14:10.466Z,32.23
2019-05-20T10:15:14.719Z,33.47
2019-05-20T10:16:19.435Z,32.83
2019-05-20T10:17:23.642Z,33.13
2019-05-20T10:18:37.276Z,35.00
2019-05-20T10:19:34.345Z,33.53
2019-05-20T10:20:39.153Z,33.70
2019-05-20T10:21:43.363Z,34.27
2019-05-20T10:22:48.158Z,32.63
2019-05-20T10:23:52.497Z,33.60
2019-05-20T10:24:57.309Z,33.63
2019-05-20T10:26:01.543Z,33.00
2019-05-20T10:27:06.327Z,35.23
2019-05-20T10:28:10.568Z,33.50
2019-05-20T10:29:15.392Z,32.63
2019-05-20T10:30:19.638Z,32.50
2019-05-20T10:31:24.421Z,33.60
2019-05-20T10:32:28.639Z,34.00
2019-05-20T10:33:36.817Z,33.57
2019-05-20T10:34:39.314Z,33.13
2019-05-20T10:35:44.135Z,33.73
2019-05-20T10:36:48.481Z,34.23
2019-05-20T10:37:53.263Z,33.47
2019-05-20T10:38:59.511Z,33.47
2019-05-20T10:40:03.952Z,34.00
2019-05-20T10:41:08.226Z,34.50
2019-05-20T10:42:13.068Z,34.77
2019-05-20T10:43:17.320Z,33.43
2019-05-20T10:44:22.133Z,36.03
2019-05-20T10:45:26.388Z,34.80
2019-05-20T10:46:31.175Z,35.40
2019-05-20T10:47:35.385Z,33.87
2019-05-20T10:48:40.212Z,33.03
2019-05-20T10:49:44.473Z,35.27
2019-05-20T10:50:49.319Z,33.83
2019-05-20T10:51:53.550Z,32.30
2019-05-20T10:52:58.338Z,35.23
2019-05-20T10:54:02.563Z,34.70
2019-05-20T10:55:08.221Z,35.23
2019-05-20T10:56:13.095Z,34.07
2019-05-20T10:57:18.201Z,36.37
2019-05-20T10:58:22.438Z,33.57
2019-05-20T10:59:27.214Z,34.33
2019-05-20T11:00:31.481Z,36.60
2019-05-20T11:01:36.258Z,35.83
2019-05-20T11:02:40.493Z,35.23
2019-05-20T11:03:45.278Z,35.90
2019-05-20T11:04:49.496Z,36.07
2019-05-20T11:05:55.115Z,33.83
2019-05-20T11:06:59.354Z,35.83
2019-05-20T11:08:04.133Z,35.57
2019-05-20T11:09:14.025Z,36.10
2019-05-20T11:10:15.470Z,35.80
2019-05-20T11:11:19.722Z,33.20
2019-05-20T11:12:24.536Z,35.73
2019-05-20T11:13:28.728Z,34.17
2019-05-20T11:14:33.522Z,35.37
2019-05-20T11:15:37.773Z,36.23
2019-05-20T11:16:42.551Z,32.20
2019-05-20T11:17:46.771Z,35.50
2019-05-20T11:18:51.569Z,35.77
2019-05-20T11:19:55.821Z,33.53
2019-05-20T11:21:00.628Z,36.00
2019-05-20T11:22:04.981Z,66.73
2019-05-20T11:23:09.862Z,49.03
2019-05-20T11:24:14.109Z,43.33
2019-05-20T11:25:19.058Z,46.03
2019-05-20T11:26:23.473Z,60.77
2019-05-20T11:27:28.274Z,35.70
2019-05-20T11:28:32.479Z,49.63
2019-05-20T11:29:37.256Z,34.90
2019-05-20T11:30:41.516Z,36.27
2019-05-20T11:31:46.324Z,52.00
2019-05-20T11:32:50.552Z,35.70
2019-05-20T11:33:57.585Z,36.40
2019-05-20T11:35:01.403Z,34.73
2019-05-20T11:36:06.419Z,50.70
2019-05-20T11:37:10.634Z,69.97
2019-05-20T11:38:15.416Z,44.90
2019-05-20T11:39:32.645Z,48.10
2019-05-20T11:40:26.112Z,63.00
2019-05-20T11:41:52.172Z,35.87
2019-05-20T11:42:36.814Z,120.73
2019-05-20T11:43:41.022Z,37.10
2019-05-20T11:44:45.809Z,34.73
2019-05-20T11:45:50.026Z,37.30
2019-05-20T11:46:54.836Z,35.37
2019-05-20T11:47:59.054Z,43.97
2019-05-20T11:49:03.846Z,35.90
2019-05-20T11:50:08.190Z,62.07
2019-05-20T11:51:12.998Z,41.13
2019-05-20T11:52:17.242Z,36.97
2019-05-20T11:53:22.072Z,36.30
2019-05-20T11:54:26.401Z,81.20
2019-05-20T11:55:31.443Z,34.83
2019-05-20T11:56:35.923Z,35.77
2019-05-20T11:57:40.701Z,37.53
2019-05-20T11:58:44.934Z,50.17
2019-05-20T11:59:49.744Z,72.63
2019-05-20T12:00:53.971Z,85.20
2019-05-20T12:01:58.788Z,36.27
2019-05-20T12:03:03.036Z,35.97
2019-05-20T12:04:07.856Z,38.43
2019-05-20T12:05:12.102Z,37.27
2019-05-20T12:06:16.882Z,54.93
2019-05-20T12:07:21.201Z,44.50
2019-05-20T12:08:25.971Z,64.12
2019-05-20T12:09:30.222Z,43.10
2019-05-20T12:10:34.995Z,48.20
2019-05-20T12:11:39.334Z,43.23
2019-05-20T12:12:46.163Z,35.57
2019-05-20T12:13:49.955Z,52.10
2019-05-20T12:14:54.750Z,46.23
2019-05-20T12:15:59.000Z,43.33
2019-05-20T12:17:03.837Z,63.03
2019-05-20T12:18:08.064Z,41.43
2019-05-20T12:19:12.830Z,35.53
2019-05-20T12:20:17.067Z,36.57
2019-05-20T12:21:21.849Z,35.07
2019-05-20T12:22:26.112Z,36.87
2019-05-20T12:23:30.883Z,42.87
2019-05-20T12:24:35.093Z,35.23
2019-05-20T12:25:39.866Z,35.90
2019-05-20T12:26:44.107Z,35.33
2019-05-20T12:27:48.906Z,55.83
2019-05-20T12:28:53.421Z,42.90
2019-05-20T12:29:58.199Z,40.63
2019-05-20T12:31:03.007Z,47.93
2019-05-20T12:32:07.875Z,35.10
2019-05-20T12:33:19.879Z,34.33
2019-05-20T12:34:18.598Z,34.87
2019-05-20T12:35:22.802Z,39.47
2019-05-20T12:36:27.583Z,36.25
2019-05-20T12:37:34.134Z,36.30
2019-05-20T12:38:38.925Z,40.63
2019-05-20T12:39:43.155Z,36.23
2019-05-20T12:40:47.935Z,48.75
2019-05-20T12:41:52.165Z,55.47
2019-05-20T12:42:56.981Z,40.50
2019-05-20T12:44:11.572Z,49.03
2019-05-20T12:45:07.774Z,38.25
2019-05-20T12:46:12.027Z,40.40
2019-05-20T12:47:16.850Z,34.30
2019-05-20T12:48:21.075Z,35.38
2019-05-20T12:49:26.137Z,52.08
2019-05-20T12:50:30.516Z,36.68
2019-05-20T12:51:35.309Z,36.20
2019-05-20T12:52:39.556Z,35.93
2019-05-20T12:53:44.352Z,37.50
2019-05-20T12:55:06.126Z,45.17
2019-05-20T12:55:55.023Z,35.63
2019-05-20T12:56:59.248Z,34.67
2019-05-20T12:58:04.104Z,35.10
2019-05-20T12:59:08.345Z,37.05
2019-05-20T13:00:13.190Z,49.42
2019-05-20T13:01:17.447Z,37.23
2019-05-20T13:02:22.230Z,45.35
2019-05-20T13:03:26.483Z,38.10
2019-05-20T13:04:31.223Z,36.60
2019-05-20T13:05:35.525Z,35.40
2019-05-20T13:06:40.348Z,36.15
2019-05-20T13:07:44.607Z,37.65
2019-05-20T13:08:49.388Z,37.33
2019-05-20T13:09:53.616Z,36.75
2019-05-20T13:10:58.392Z,37.35
2019-05-20T13:12:02.729Z,35.15
2019-05-20T13:13:07.539Z,35.88
2019-05-20T13:14:11.797Z,36.68
2019-05-20T13:15:16.566Z,39.98
2019-05-20T13:16:20.796Z,44.55
2019-05-20T13:17:25.641Z,41.00
2019-05-20T13:18:29.844Z,49.97
2019-05-20T13:19:34.626Z,39.63
2019-05-20T13:20:38.864Z,39.63
2019-05-20T13:21:43.727Z,39.70
2019-05-20T13:22:48.085Z,37.83
2019-05-20T13:23:52.863Z,39.93
2019-05-20T13:24:57.079Z,35.50
2019-05-20T13:26:01.866Z,35.20
2019-05-20T13:27:06.086Z,35.23
2019-05-20T13:28:10.938Z,34.95
2019-05-20T13:29:15.174Z,35.88
2019-05-20T13:30:19.970Z,35.67
2019-05-20T13:31:24.222Z,36.90
2019-05-20T13:32:28.988Z,36.63
2019-05-20T13:33:33.251Z,36.27
2019-05-20T13:34:38.051Z,38.58
2019-05-20T13:35:42.268Z,38.85
2019-05-20T13:36:47.288Z,36.60
2019-05-20T13:37:51.515Z,38.10
2019-05-20T13:38:56.337Z,37.40
2019-05-20T13:40:03.178Z,38.30
2019-05-20T13:41:07.010Z,37.03
2019-05-20T13:42:11.259Z,35.97
2019-05-20T13:43:16.068Z,37.17
2019-05-20T13:44:20.376Z,36.17
2019-05-20T13:45:25.218Z,38.87
2019-05-20T13:46:29.435Z,36.63
2019-05-20T13:47:34.289Z,38.10
2019-05-20T13:48:38.548Z,39.23
2019-05-20T13:49:43.399Z,38.00
2019-05-20T13:50:47.628Z,38.47
2019-05-20T13:51:52.466Z,38.67
2019-05-20T13:52:56.688Z,37.63